Time;durP1;ratioP1;P1;durP2;ratioP2;P2;SDS_P1;SDS_P2;PMS_P1;PMS_P2;Temp;Humidity;BMP_temperature;BMP_pressure;BME280_temperature;BME280_humidity;BME280_pressure;Samples;Min_cycle;Max_cycle;Signal;HPM_P1;HPM_P2
2022/12/21 00:00:01;;;;;;;1.03;1.00;;;;;;;0.99;71.43;96350.66;5114184;28;20500;-58
2022/12/21 00:02:30;;;;;;;0.90;0.90;;;;;;;0.95;72.06;96357.25;5113968;28;20953;-58
2022/12/21 00:04:58;;;;;;;0.93;0.93;;;;;;;1.03;71.94;96377.22;5114125;28;20424;-58
2022/12/21 00:07:26;;;;;;;5.90;0.70;;;;;;;-0.31;72.88;96156.97;5113834;28;20787;-58
2022/12/21 00:09:56;;;;;;;0.50;0.40;;;;;;;0.92;73.56;96377.66;5114035;28;20424;-58
2022/12/21 00:12:26;;;;;;;0.97;0.97;;;;;;;0.88;74.59;96371.22;5113923;28;20789;-58
2022/12/21 00:14:54;;;;;;;1.17;1.03;;;;;;;0.93;74.17;96371.47;5113316;28;20428;-59
2022/12/21 00:17:22;;;;;;;4.83;1.57;;;;;;;-1.06;74.42;96073.09;5113594;28;20510;-58
2022/12/21 00:19:51;;;;;;;0.80;0.80;;;;;;;0.66;75.51;96370.34;5112546;28;20467;-58
2022/12/21 00:22:19;;;;;;;1.33;1.17;;;;;;;0.48;76.29;96372.53;5113824;28;20804;-58
2022/12/21 00:24:48;;;;;;;5.33;0.90;;;;;;;0.38;79.29;96369.38;5113337;28;20490;-58
2022/12/21 00:27:16;;;;;;;1.07;1.03;;;;;;;0.53;80.70;96362.38;5113469;28;20463;-58
2022/12/21 00:29:46;;;;;;;2.17;2.07;;;;;;;0.48;79.40;96351.66;5113724;28;20447;-58
2022/12/21 00:32:14;;;;;;;0.90;0.90;;;;;;;0.79;77.91;96365.28;5113538;28;20499;-58
2022/12/21 00:34:42;;;;;;;0.40;0.40;;;;;;;0.52;76.56;96345.09;5113508;28;20534;-58
2022/12/21 00:37:11;;;;;;;2.63;1.23;;;;;;;0.39;79.22;96357.94;5113074;28;20434;-58
2022/12/21 00:39:40;;;;;;;0.67;0.67;;;;;;;0.11;80.87;96362.16;5113474;28;20471;-58
2022/12/21 00:42:08;;;;;;;2.23;0.90;;;;;;;-0.14;83.65;96344.19;5112946;28;20523;-58
2022/12/21 00:44:36;;;;;;;1.70;1.23;;;;;;;-0.38;84.67;96296.72;5113472;28;20787;-58
2022/12/21 00:47:07;;;;;;;2.10;2.00;;;;;;;0.20;83.41;96319.41;5113258;28;20428;-58
2022/12/21 00:49:35;;;;;;;2.20;1.33;;;;;;;0.35;81.95;96352.31;5113043;28;20471;-58
2022/12/21 00:52:05;;;;;;;1.47;0.83;;;;;;;0.35;80.25;96346.28;5112868;28;20431;-58
2022/12/21 00:54:34;;;;;;;0.77;0.77;;;;;;;0.43;79.57;96352.19;5112936;28;20420;-58
2022/12/21 00:57:02;;;;;;;1.20;1.10;;;;;;;0.38;80.31;96351.91;5112809;28;20438;-58
2022/12/21 00:59:31;;;;;;;5.23;1.87;;;;;;;-0.67;80.60;96203.75;5112769;28;20502;-58
2022/12/21 01:02:01;;;;;;;2.10;1.07;;;;;;;0.56;79.46;96348.94;5112705;28;20428;-58
2022/12/21 01:04:31;;;;;;;2.43;0.87;;;;;;;0.45;78.62;96342.41;5113080;28;20444;-58
2022/12/21 01:06:59;;;;;;;2.33;2.20;;;;;;;0.39;79.31;96337.09;5112477;28;20443;-57
2022/12/21 01:09:28;;;;;;;0.87;0.87;;;;;;;0.35;78.45;96304.56;5112547;28;20499;-57
2022/12/21 01:11:56;;;;;;;1.17;1.17;;;;;;;0.15;79.30;96334.78;5112628;28;20439;-57
2022/12/21 01:14:26;;;;;;;2.47;2.27;;;;;;;-0.16;78.56;96239.34;5112956;28;20439;-57
2022/12/21 01:16:54;;;;;;;1.73;1.67;;;;;;;0.64;78.33;96320.97;5112280;28;20846;-57
2022/12/21 01:19:23;;;;;;;1.37;1.27;;;;;;;0.80;77.32;96321.75;5112506;28;20991;-57
2022/12/21 01:21:52;;;;;;;0.70;0.70;;;;;;;-0.08;75.93;96197.53;5112188;28;20424;-57
2022/12/21 01:24:21;;;;;;;0.63;0.63;;;;;;;0.88;74.89;96312.00;5112729;28;20420;-57
2022/12/21 01:26:49;;;;;;;0.50;0.50;;;;;;;0.91;74.50;96314.22;5112234;28;21024;-57
2022/12/21 01:29:17;;;;;;;0.40;0.40;;;;;;;0.74;73.88;96268.47;5112386;28;20515;-57
2022/12/21 01:31:46;;;;;;;0.50;0.50;;;;;;;0.77;74.94;96315.09;5111806;28;20522;-58
2022/12/21 01:34:14;;;;;;;2.67;2.57;;;;;;;0.51;74.94;96341.66;5112210;28;20420;-58
2022/12/21 01:36:43;;;;;;;2.10;0.80;;;;;;;-0.37;74.91;96192.34;5112022;28;20432;-57
2022/12/21 01:39:12;;;;;;;0.60;0.60;;;;;;;-0.26;75.83;96235.38;5112004;28;20523;-57
2022/12/21 01:41:41;;;;;;;0.67;0.67;;;;;;;-0.06;75.92;96286.78;5112068;28;20542;-58
2022/12/21 01:44:42;;;;;;;0.50;0.50;;;;;;;0.49;76.39;96307.13;5112263;28;20440;-57
2022/12/21 01:47:16;;;;;;;0.63;0.63;;;;;;;0.37;77.40;96318.22;5112300;28;20530;-57
2022/12/21 01:49:49;;;;;;;2.53;1.10;;;;;;;0.06;77.95;96244.63;5111889;28;20482;-58
2022/12/21 01:52:19;;;;;;;1.37;1.27;;;;;;;0.31;78.60;96317.13;5111953;28;20428;-57
2022/12/21 01:54:53;;;;;;;1.40;1.40;;;;;;;0.46;77.67;96289.25;5111986;28;20805;-57
2022/12/21 01:57:29;;;;;;;0.87;0.50;;;;;;;0.49;77.14;96314.97;5111872;28;20437;-57
2022/12/21 02:00:08;;;;;;;1.23;1.20;;;;;;;0.47;77.20;96314.34;5111770;28;20466;-56
2022/12/21 02:02:48;;;;;;;0.70;0.70;;;;;;;0.09;78.85;96312.84;5112123;28;20428;-57
2022/12/21 02:05:25;;;;;;;1.27;1.23;;;;;;;0.17;78.09;96273.66;5111836;28;20450;-57
2022/12/21 02:07:56;;;;;;;1.13;1.10;;;;;;;0.17;78.83;96306.72;5110859;28;20444;-57
2022/12/21 02:10:26;;;;;;;2.03;1.20;;;;;;;0.05;79.83;96305.56;5111817;28;20938;-57
2022/12/21 02:13:01;;;;;;;11.93;0.97;;;;;;;0.06;80.69;96301.94;5111746;28;20424;-58
2022/12/21 02:15:46;;;;;;;0.40;0.37;;;;;;;-0.39;81.24;96271.66;5111840;28;20510;-57
2022/12/21 02:18:23;;;;;;;1.20;1.07;;;;;;;-1.37;81.82;96089.59;5111845;28;20431;-57
2022/12/21 02:21:24;;;;;;;1.30;1.30;;;;;;;0.28;81.41;96282.81;5112085;28;20467;-57
2022/12/21 02:24:38;;;;;;;0.90;0.90;;;;;;;0.19;81.39;96289.09;5105365;28;20783;-57
2022/12/21 02:27:58;;;;;;;11.10;1.40;;;;;;;0.07;82.48;96282.72;5111660;28;20429;-57
2022/12/21 02:30:42;;;;;;;0.70;0.70;;;;;;;0.04;81.99;96281.28;5111658;28;20467;-57
2022/12/21 02:33:33;;;;;;;1.43;1.33;;;;;;;-0.07;81.76;96264.31;5111426;28;20432;-57
2022/12/21 02:36:24;;;;;;;1.33;0.47;;;;;;;-0.03;83.31;96275.97;5111512;28;20428;-58
2022/12/21 02:39:02;;;;;;;0.53;0.53;;;;;;;-0.38;85.14;96275.88;5111869;28;20467;-58
2022/12/21 02:41:46;;;;;;;1.63;1.53;;;;;;;-0.77;88.22;96255.25;5111586;28;20516;-58
2022/12/21 02:44:34;;;;;;;0.50;0.40;;;;;;;-1.78;90.57;96114.34;5114498;28;20518;-58
2022/12/21 02:47:23;;;;;;;1.27;1.20;;;;;;;-0.07;87.48;96279.13;5115572;28;20435;-57
2022/12/21 02:50:09;;;;;;;1.50;1.40;;;;;;;-0.45;86.03;96212.47;5114700;28;20471;-57
2022/12/21 02:52:45;;;;;;;2.00;1.13;;;;;;;0.05;85.31;96271.69;5115581;28;20426;-57
2022/12/21 02:55:14;;;;;;;4.53;0.93;;;;;;;0.10;84.65;96269.34;5096598;28;20431;-57
2022/12/21 02:57:45;;;;;;;5.50;0.93;;;;;;;-0.05;85.19;96267.53;5115441;28;20449;-58
2022/12/21 03:00:17;;;;;;;0.80;0.70;;;;;;;-0.12;84.78;96271.03;5115004;28;20467;-58
2022/12/21 03:06:14;;;;;;;0.40;0.40;;;;;;;-0.26;86.52;96238.81;5114813;28;20431;-58
2022/12/21 03:08:57;;;;;;;0.60;0.60;;;;;;;-0.06;84.17;96271.16;5115341;28;20765;-58
2022/12/21 03:11:35;;;;;;;0.30;0.30;;;;;;;-0.10;84.42;96264.66;5114873;28;20489;-57
2022/12/21 03:14:08;;;;;;;0.57;0.53;;;;;;;-0.44;84.39;96204.50;5114874;28;20931;-58
2022/12/21 03:16:46;;;;;;;1.90;1.80;;;;;;;-0.31;84.86;96255.97;5115146;28;20770;-58
2022/12/21 03:19:22;;;;;;;2.70;2.53;;;;;;;-0.27;84.38;96211.13;5114840;28;20953;-58
2022/12/21 03:21:54;;;;;;;0.30;0.30;;;;;;;-0.77;84.30;96136.34;5115123;28;20822;-58
2022/12/21 03:24:27;;;;;;;1.70;0.83;;;;;;;-0.12;85.53;96253.63;5114666;28;20455;-58
2022/12/21 03:27:00;;;;;;;1.10;1.10;;;;;;;-0.77;84.85;96128.53;5114895;28;20435;-58
2022/12/21 03:29:34;;;;;;;0.70;0.70;;;;;;;-0.55;84.78;96191.91;5115027;28;20501;-58
2022/12/21 03:32:08;;;;;;;1.07;1.03;;;;;;;0.00;85.00;96244.34;5114453;28;20496;-58
2022/12/21 03:34:42;;;;;;;0.77;0.77;;;;;;;-0.07;84.65;96247.84;5114465;28;20432;-58
2022/12/21 03:37:15;;;;;;;0.80;0.80;;;;;;;-0.89;86.56;96194.22;5114453;28;20452;-58
2022/12/21 03:39:49;;;;;;;1.00;1.00;;;;;;;-1.01;90.01;96206.03;5113763;28;20432;-58
2022/12/21 03:42:23;;;;;;;1.13;1.13;;;;;;;-0.76;91.66;96259.50;5114508;28;20546;-58
2022/12/21 03:44:57;;;;;;;1.13;0.97;;;;;;;-0.85;92.52;96263.94;5114207;28;20511;-58
2022/12/21 03:47:31;;;;;;;1.90;1.80;;;;;;;-0.96;93.27;96251.34;5114484;28;20435;-58
2022/12/21 03:50:06;;;;;;;0.83;0.83;;;;;;;-0.75;91.96;96264.50;5113894;28;20552;-58
2022/12/21 03:52:40;;;;;;;0.70;0.70;;;;;;;-0.58;89.86;96270.34;5114208;28;20416;-58
2022/12/21 03:55:13;;;;;;;0.80;0.60;;;;;;;-0.67;88.49;96246.22;5114018;28;20510;-58
2022/12/21 03:57:44;;;;;;;1.93;1.83;;;;;;;-0.57;88.28;96273.78;5114004;28;20432;-58
2022/12/21 04:00:13;;;;;;;0.70;0.70;;;;;;;-0.88;88.59;96237.44;5114235;28;20432;-58
2022/12/21 04:02:49;;;;;;;0.50;0.50;;;;;;;-1.14;88.38;96170.22;5113963;28;21009;-58
2022/12/21 04:05:25;;;;;;;0.93;0.93;;;;;;;-0.48;86.97;96238.88;5114112;28;20427;-58
2022/12/21 04:07:55;;;;;;;1.63;0.60;;;;;;;-0.43;86.75;96275.63;5113678;28;20458;-58
2022/12/21 04:10:25;;;;;;;0.60;0.50;;;;;;;-3.48;86.64;95843.91;5113744;28;20463;-58
2022/12/21 04:12:53;;;;;;;0.50;0.47;;;;;;;-0.47;87.64;96267.34;5114040;28;20438;-58
2022/12/21 04:16:02;;;;;;;4.33;1.90;;;;;;;-0.43;87.15;96273.00;5113919;28;20467;-58
2022/12/21 04:18:14;;;;;;;0.93;0.93;;;;;;;-0.42;86.65;96259.00;5113490;28;20952;-57
2022/12/21 04:20:43;;;;;;;1.00;0.63;;;;;;;-0.40;86.59;96267.41;5113443;28;20455;-57
2022/12/21 04:28:45;;;;;;;5.63;1.33;;;;;;;-0.44;85.45;96227.94;5113200;28;20471;-57
2022/12/21 04:31:18;;;;;;;2.00;1.20;;;;;;;-0.38;86.15;96255.84;5113294;28;20502;-57
2022/12/21 04:33:47;;;;;;;3.40;2.10;;;;;;;-0.38;85.75;96255.84;5113413;28;20428;-57
2022/12/21 04:39:04;;;;;;;12.90;0.43;;;;;;;-0.84;85.20;96161.47;5113181;28;20432;-57
2022/12/21 04:41:35;;;;;;;0.73;0.73;;;;;;;-0.70;86.76;96253.56;5113452;28;20551;-57
2022/12/21 04:44:07;;;;;;;0.97;0.97;;;;;;;-1.72;88.56;96102.44;5112920;28;20438;-57
2022/12/21 04:46:35;;;;;;;0.60;0.60;;;;;;;-1.07;87.99;96191.94;5113441;28;20502;-57
2022/12/21 04:49:04;;;;;;;0.97;0.87;;;;;;;-0.73;87.08;96235.69;5112761;28;20540;-58
2022/12/21 04:51:34;;;;;;;0.60;0.60;;;;;;;-0.45;85.75;96247.13;5112988;28;20466;-58
2022/12/21 04:54:03;;;;;;;4.20;0.80;;;;;;;-0.46;85.12;96232.50;5113134;28;20884;-58
2022/12/21 04:56:32;;;;;;;1.70;1.60;;;;;;;-0.78;83.94;96225.00;5112817;28;20428;-58
2022/12/21 04:59:13;;;;;;;4.53;2.47;;;;;;;-1.27;84.86;96182.19;5112669;28;20446;-58
2022/12/21 05:01:48;;;;;;;3.60;3.50;;;;;;;-0.84;85.77;96267.34;5112581;28;20476;-57
2022/12/21 05:04:17;;;;;;;4.93;3.07;;;;;;;-0.94;85.80;96285.00;5112794;28;20478;-57
2022/12/21 05:06:47;;;;;;;3.03;2.93;;;;;;;-0.54;84.91;96265.63;5111874;28;20434;-57
2022/12/21 05:09:16;;;;;;;3.67;3.47;;;;;;;-1.49;83.97;96100.59;5112752;28;20519;-57
2022/12/21 05:11:44;;;;;;;4.47;2.93;;;;;;;-0.82;84.80;96224.56;5112507;28;20411;-58
2022/12/21 05:14:13;;;;;;;1.27;1.17;;;;;;;-1.74;85.97;96094.00;5112564;28;20432;-57
2022/12/21 05:16:41;;;;;;;1.73;1.33;;;;;;;-1.70;85.25;96122.06;5112540;28;20851;-57
2022/12/21 05:19:10;;;;;;;2.73;0.70;;;;;;;-0.62;85.22;96248.28;5112140;28;20962;-58
2022/12/21 05:21:48;;;;;;;0.80;0.80;;;;;;;-2.93;83.94;95854.09;5111981;28;20957;-57
2022/12/21 05:24:17;;;;;;;0.87;0.87;;;;;;;-3.16;83.69;95881.81;5112181;28;20431;-59
2022/12/21 05:26:48;;;;;;;0.97;0.97;;;;;;;-0.46;84.26;96231.69;5112511;28;20443;-58
2022/12/21 05:29:25;;;;;;;2.83;1.53;;;;;;;-0.56;84.95;96247.59;5112163;28;20475;-57
2022/12/21 05:31:55;;;;;;;1.77;1.47;;;;;;;-0.53;84.51;96230.78;5111971;28;20443;-57
2022/12/21 05:34:23;;;;;;;2.13;1.97;;;;;;;-0.49;84.53;96227.66;5111844;28;20442;-58
2022/12/21 05:36:58;;;;;;;2.10;2.00;;;;;;;-0.65;84.73;96236.44;5111885;28;20522;-58
2022/12/21 05:39:26;;;;;;;3.53;2.47;;;;;;;-0.53;84.76;96225.59;5111884;28;20431;-58
2022/12/21 05:41:56;;;;;;;2.17;2.07;;;;;;;-0.35;84.85;96203.41;5112021;28;20467;-59
2022/12/21 05:44:24;;;;;;;0.50;0.50;;;;;;;-1.43;83.12;96030.53;5112206;28;20755;-58
2022/12/21 05:46:54;;;;;;;1.73;1.27;;;;;;;-0.27;83.41;96234.56;5112014;28;20781;-58
2022/12/21 05:49:24;;;;;;;0.57;0.57;;;;;;;-0.09;82.69;96240.22;5111256;28;20472;-58
2022/12/21 05:51:58;;;;;;;2.20;2.10;;;;;;;-0.06;82.23;96234.66;5111912;28;20428;-58
2022/12/21 05:54:26;;;;;;;1.37;1.37;;;;;;;-0.24;82.68;96236.00;5111626;28;20435;-58
2022/12/21 05:56:55;;;;;;;4.43;2.57;;;;;;;-0.38;82.67;96202.97;5112229;28;20454;-59
2022/12/21 05:59:23;;;;;;;5.70;1.77;;;;;;;-0.22;82.12;96231.41;5111577;28;20786;-59
2022/12/21 06:01:54;;;;;;;4.00;2.90;;;;;;;-0.43;81.63;96206.09;5111966;28;20517;-59
2022/12/21 06:04:23;;;;;;;2.80;2.70;;;;;;;-0.75;81.83;96149.97;5111971;28;20455;-57
2022/12/21 06:06:51;;;;;;;2.87;2.70;;;;;;;-0.32;81.37;96225.69;5111660;28;20433;-55
2022/12/21 06:09:23;;;;;;;2.20;1.00;;;;;;;-0.12;86.10;96214.53;5112004;28;20432;-59
2022/12/21 06:11:52;;;;;;;4.10;3.47;;;;;;;0.31;81.77;96220.66;5111868;28;20947;-60
2022/12/21 06:14:39;;;;;;;3.37;3.07;;;;;;;0.32;80.35;96222.28;5111907;28;20435;-59
2022/12/21 06:17:07;;;;;;;1.20;1.10;;;;;;;-4.43;79.20;95524.13;5112845;28;20503;-60
2022/12/21 06:19:36;;;;;;;5.03;1.43;;;;;;;0.62;79.04;96249.09;5115768;28;20456;-60
2022/12/21 06:22:04;;;;;;;5.37;4.83;;;;;;;1.40;78.71;96222.88;5115094;28;20506;-60
2022/12/21 06:24:34;;;;;;;5.70;1.90;;;;;;;0.84;75.32;96172.44;5115761;28;20466;-60
2022/12/21 06:27:03;;;;;;;2.73;2.63;;;;;;;0.35;74.60;96069.91;5115534;28;20489;-60
2022/12/21 06:29:31;;;;;;;21.97;4.40;;;;;;;1.43;75.08;96211.25;5115649;28;20936;-61
2022/12/21 06:32:00;;;;;;;3.37;2.20;;;;;;;1.59;74.87;96205.75;5115265;28;20424;-60
2022/12/21 06:34:28;;;;;;;1.53;1.43;;;;;;;1.49;73.40;96211.31;5115487;28;20812;-59
2022/12/21 06:36:58;;;;;;;2.30;1.73;;;;;;;0.22;73.03;96048.91;5115590;28;20519;-59
2022/12/21 06:39:30;;;;;;;5.03;4.17;;;;;;;1.50;73.41;96209.50;5115475;28;20455;-59
2022/12/21 06:42:00;;;;;;;4.73;3.33;;;;;;;2.30;73.03;96197.44;5114973;28;20435;-60
2022/12/21 06:44:28;;;;;;;4.20;4.00;;;;;;;1.77;71.65;96204.22;5115182;28;20918;-59
2022/12/21 06:46:56;;;;;;;6.90;4.00;;;;;;;1.29;72.84;96198.09;5115422;28;20883;-59
2022/12/21 06:49:24;;;;;;;2.50;1.70;;;;;;;1.43;75.44;96199.00;5114905;28;20481;-58
2022/12/21 06:51:55;;;;;;;2.30;2.17;;;;;;;-3.20;72.90;95492.56;5115287;28;20419;-59
2022/12/21 06:54:24;;;;;;;3.00;2.80;;;;;;;2.04;72.76;96199.97;5115127;28;20416;-59
2022/12/21 06:56:52;;;;;;;3.13;2.90;;;;;;;2.13;70.19;96150.91;5115167;28;20507;-62
2022/12/21 06:59:22;;;;;;;1.73;1.63;;;;;;;2.69;69.07;96199.34;5115489;28;20427;-58
2022/12/21 07:01:50;;;;;;;4.43;0.97;;;;;;;3.92;67.40;96180.34;5114007;28;20903;-57
2022/12/21 07:04:18;;;;;;;2.07;0.50;;;;;;;4.16;65.53;96182.28;5114907;28;20987;-58
2022/12/21 07:06:48;;;;;;;1.57;0.90;;;;;;;4.15;65.37;96120.34;5114978;28;20522;-58
2022/12/21 07:09:17;;;;;;;1.53;1.43;;;;;;;3.85;63.09;96068.41;5114830;28;20991;-58
2022/12/21 07:11:46;;;;;;;1.77;1.67;;;;;;;4.61;61.98;96169.94;5114400;28;20423;-58
2022/12/21 07:14:14;;;;;;;3.40;1.13;;;;;;;4.80;62.66;96172.47;5114678;28;20459;-58
2022/12/21 07:16:44;;;;;;;4.43;4.33;;;;;;;5.31;60.66;96161.78;5114573;28;20499;-58
2022/12/21 07:19:12;;;;;;;2.10;2.00;;;;;;;5.15;60.21;96133.41;5114664;28;20433;-58
2022/12/21 07:21:41;;;;;;;1.03;1.03;;;;;;;5.90;58.99;96140.16;5114438;28;20432;-59
2022/12/21 07:24:09;;;;;;;9.67;1.07;;;;;;;5.88;58.34;96131.69;5114337;28;20471;-57
2022/12/21 07:26:38;;;;;;;1.37;1.27;;;;;;;5.12;57.54;95990.13;5114478;28;20531;-60
2022/12/21 07:29:06;;;;;;;0.83;0.83;;;;;;;6.47;55.61;96152.03;5113470;28;20953;-60
2022/12/21 07:31:34;;;;;;;2.47;2.37;;;;;;;6.05;57.10;96148.47;5114443;28;20861;-60
2022/12/21 07:34:04;;;;;;;6.93;2.07;;;;;;;6.09;56.04;96143.59;5114116;28;20895;-60
2022/12/21 07:36:33;;;;;;;3.60;3.03;;;;;;;6.69;54.46;96139.97;5113407;28;20421;-60
2022/12/21 07:39:01;;;;;;;1.07;1.07;;;;;;;7.24;52.83;96147.63;5114240;28;20525;-61
2022/12/21 07:41:29;;;;;;;1.20;0.80;;;;;;;7.80;52.03;96131.22;5114199;28;20429;-61
2022/12/21 07:43:57;;;;;;;1.33;1.33;;;;;;;8.26;52.20;96125.84;5113845;28;21057;-61
2022/12/21 07:46:26;;;;;;;2.13;1.87;;;;;;;8.68;50.67;96132.47;5114020;28;20488;-61
2022/12/21 07:48:54;;;;;;;1.70;1.50;;;;;;;9.19;51.96;96126.22;5113857;28;20490;-61
2022/12/21 07:51:24;;;;;;;1.17;1.17;;;;;;;8.91;50.09;96123.63;5114038;28;20490;-60
2022/12/21 07:53:52;;;;;;;1.17;1.10;;;;;;;9.06;49.18;96123.88;5113852;28;20521;-60
2022/12/21 07:56:21;;;;;;;11.57;2.47;;;;;;;9.22;48.12;96119.66;5113688;28;20511;-61
2022/12/21 07:58:49;;;;;;;4.97;1.73;;;;;;;9.43;48.96;96117.09;5113815;28;20431;-61
2022/12/21 08:01:19;;;;;;;4.60;1.83;;;;;;;8.86;49.17;96119.06;5113383;28;20424;-61
2022/12/21 08:03:48;;;;;;;7.10;2.10;;;;;;;9.40;48.26;96114.13;5113862;28;20910;-62
2022/12/21 08:06:18;;;;;;;1.47;1.40;;;;;;;9.37;47.80;96114.59;5113641;28;20430;-63
2022/12/21 08:08:48;;;;;;;1.93;1.77;;;;;;;9.69;47.62;96110.28;5113706;28;20807;-63
2022/12/21 08:11:18;;;;;;;1.77;1.77;;;;;;;9.79;46.79;96107.78;5113571;28;20877;-63
2022/12/21 08:13:48;;;;;;;1.80;1.70;;;;;;;9.61;46.74;96116.03;5113590;28;20421;-63
2022/12/21 08:16:18;;;;;;;1.47;1.37;;;;;;;10.80;46.18;96107.13;5113227;28;20433;-63
2022/12/21 08:18:47;;;;;;;1.70;1.63;;;;;;;10.45;44.05;96052.97;5113994;28;20430;-63
2022/12/21 08:21:15;;;;;;;2.50;1.97;;;;;;;10.64;43.83;96080.72;5113657;28;20455;-62
2022/12/21 08:23:44;;;;;;;2.27;2.07;;;;;;;10.51;43.92;96112.91;5113505;28;20477;-63
2022/12/21 08:26:14;;;;;;;1.43;1.33;;;;;;;10.95;44.97;96103.03;5113267;28;20418;-64
2022/12/21 08:28:44;;;;;;;2.37;2.27;;;;;;;10.79;44.14;96084.31;5113288;28;20415;-64
2022/12/21 08:31:15;;;;;;;4.77;1.57;;;;;;;11.00;44.20;96095.91;5112721;28;20425;-64
2022/12/21 08:33:45;;;;;;;2.77;2.60;;;;;;;10.23;43.34;96098.03;5113135;28;20911;-63
2022/12/21 08:36:15;;;;;;;2.27;2.07;;;;;;;11.26;43.99;96086.28;5113321;28;20547;-61
2022/12/21 08:38:44;;;;;;;1.13;1.13;;;;;;;11.23;43.21;96095.56;5113038;28;20439;-60
2022/12/21 08:41:34;;;;;;;1.60;1.50;;;;;;;11.57;43.92;96081.97;5111779;28;20812;-60
2022/12/21 08:44:02;;;;;;;1.17;0.93;;;;;;;12.37;42.83;96078.94;5112853;28;20502;-60
2022/12/21 08:46:30;;;;;;;2.70;1.77;;;;;;;12.70;41.74;96062.50;5113109;28;20483;-60
2022/12/21 08:48:59;;;;;;;1.67;1.00;;;;;;;12.40;41.82;96063.25;5112593;28;20475;-60
2022/12/21 08:51:27;;;;;;;1.80;0.97;;;;;;;12.50;40.75;96055.31;5113453;28;20557;-60
2022/12/21 08:53:55;;;;;;;1.33;1.23;;;;;;;12.77;40.81;96048.97;5113176;28;20456;-59
2022/12/21 08:56:24;;;;;;;1.03;1.03;;;;;;;12.80;40.89;96024.50;5112761;28;20577;-60
2022/12/21 08:58:54;;;;;;;1.13;0.90;;;;;;;12.91;38.85;96015.44;5112555;28;20462;-60
2022/12/21 09:01:23;;;;;;;1.80;1.70;;;;;;;13.29;39.65;96017.56;5112768;28;20462;-59
2022/12/21 09:03:52;;;;;;;1.13;1.03;;;;;;;13.30;39.57;95968.59;5112614;28;20467;-59
2022/12/21 09:06:20;;;;;;;1.10;1.00;;;;;;;13.76;38.75;96028.63;5112618;28;20704;-59
2022/12/21 09:08:52;;;;;;;0.90;0.83;;;;;;;13.58;38.31;96010.59;5112569;28;20821;-59
2022/12/21 09:11:22;;;;;;;1.97;1.57;;;;;;;13.56;38.05;96010.06;5112393;28;20466;-58
2022/12/21 09:14:01;;;;;;;2.97;0.90;;;;;;;14.26;37.54;96010.84;5112603;28;20927;-58
2022/12/21 09:16:29;;;;;;;4.37;1.87;;;;;;;14.01;35.66;96012.56;5112311;28;20476;-58
2022/12/21 09:18:58;;;;;;;0.80;0.80;;;;;;;13.38;36.49;96002.66;5112531;28;20800;-58
2022/12/21 09:21:26;;;;;;;0.60;0.50;;;;;;;14.49;36.54;95989.69;5112619;28;20416;-58
2022/12/21 09:23:54;;;;;;;4.60;1.27;;;;;;;14.70;36.06;95997.53;5112091;28;20995;-59
2022/12/21 09:26:23;;;;;;;1.30;1.20;;;;;;;14.95;34.08;95986.66;5112182;28;20434;-56
2022/12/21 09:28:51;;;;;;;1.10;0.53;;;;;;;14.75;34.42;95976.94;5111953;28;20926;-57
2022/12/21 09:31:22;;;;;;;0.53;0.53;;;;;;;14.81;34.44;95973.16;5112135;28;21156;-57
2022/12/21 09:33:53;;;;;;;0.77;0.77;;;;;;;16.15;33.07;95968.53;5111960;28;20440;-57
2022/12/21 09:36:23;;;;;;;0.53;0.50;;;;;;;14.30;35.29;95977.22;5112057;28;20411;-56
2022/12/21 09:38:51;;;;;;;0.90;0.90;;;;;;;13.75;36.48;95968.44;5111747;28;20428;-58
2022/12/21 09:41:59;;;;;;;1.47;1.37;;;;;;;13.60;35.36;95965.84;5111876;28;20423;-58
2022/12/21 09:44:50;;;;;;;0.83;0.70;;;;;;;13.66;35.72;95958.63;5112236;28;20861;-58
2022/12/21 09:47:23;;;;;;;0.70;0.70;;;;;;;13.64;34.90;95966.09;5111941;28;20511;-58
2022/12/21 09:49:57;;;;;;;0.70;0.70;;;;;;;14.02;34.32;95960.84;5111837;28;20554;-58
2022/12/21 09:52:31;;;;;;;0.90;0.73;;;;;;;12.88;36.19;95952.13;5111650;28;20416;-58
2022/12/21 09:55:03;;;;;;;0.63;0.50;;;;;;;13.39;35.82;95913.72;5112282;28;20424;-59
2022/12/21 09:57:34;;;;;;;1.33;1.23;;;;;;;14.13;35.61;95945.59;5111798;28;20439;-59
2022/12/21 10:00:13;;;;;;;3.53;1.17;;;;;;;14.41;34.67;95944.13;5111910;28;20841;-59
2022/12/21 10:03:05;;;;;;;1.30;0.83;;;;;;;14.99;33.56;95932.44;5111884;28;20432;-59
2022/12/21 10:05:48;;;;;;;5.53;0.80;;;;;;;14.80;33.37;95925.41;5111881;28;21066;-58
2022/12/21 10:08:33;;;;;;;1.10;1.10;;;;;;;15.04;33.62;95911.03;5111741;28;20450;-58
2022/12/21 10:11:11;;;;;;;1.53;1.43;;;;;;;15.89;33.71;95901.22;5111660;28;20455;-51
2022/12/21 10:13:49;;;;;;;5.53;1.20;;;;;;;15.57;32.33;95897.66;5111611;28;20420;-51
2022/12/21 10:16:31;;;;;;;2.10;1.63;;;;;;;16.31;33.02;95896.91;5111537;28;21042;-51
2022/12/21 10:19:23;;;;;;;1.43;1.03;;;;;;;13.61;34.48;95878.75;5111579;28;20514;-51
2022/12/21 10:22:02;;;;;;;3.20;1.83;;;;;;;12.31;37.45;95899.22;5111770;28;20432;-51
2022/12/21 10:24:36;;;;;;;2.10;0.80;;;;;;;13.71;34.57;95898.13;5111684;28;20499;-50
2022/12/21 10:27:14;;;;;;;0.93;0.83;;;;;;;14.88;33.73;95887.41;5111144;28;20425;-51
2022/12/21 10:29:47;;;;;;;0.73;0.73;;;;;;;15.38;32.10;95862.06;5111532;28;20458;-55
2022/12/21 10:32:16;;;;;;;7.60;1.23;;;;;;;16.85;30.60;95872.22;5111307;28;20424;-57
2022/12/21 10:34:48;;;;;;;4.63;1.23;;;;;;;17.06;30.72;95860.84;5111335;28;20424;-55
2022/12/21 10:37:18;;;;;;;0.87;0.83;;;;;;;16.97;30.60;95851.13;5111962;28;20436;-55
2022/12/21 10:39:50;;;;;;;3.80;0.80;;;;;;;17.24;30.79;95834.25;5111312;28;20468;-56
2022/12/21 10:42:22;;;;;;;0.60;0.40;;;;;;;18.27;29.76;95852.94;5111553;28;20896;-56
2022/12/21 10:44:52;;;;;;;3.80;1.57;;;;;;;17.66;29.01;95848.13;5111552;28;20849;-56
2022/12/21 10:47:22;;;;;;;2.87;2.77;;;;;;;17.90;29.53;95847.91;5111506;28;20456;-56
2022/12/21 10:50:03;;;;;;;1.47;0.83;;;;;;;19.46;28.51;95827.84;5110997;28;20477;-56
2022/12/21 10:52:37;;;;;;;1.50;1.50;;;;;;;17.96;28.95;95835.16;5111083;28;20933;-56
2022/12/21 10:55:24;;;;;;;2.70;1.77;;;;;;;17.35;28.72;95836.44;5110709;28;20427;-56
2022/12/21 10:57:56;;;;;;;1.33;1.23;;;;;;;17.77;28.18;95828.06;5110979;28;20956;-56
2022/12/21 11:00:27;;;;;;;0.80;0.80;;;;;;;19.01;28.33;95819.13;5111096;28;20428;-56
2022/12/21 11:02:57;;;;;;;2.20;1.87;;;;;;;18.35;29.23;95824.56;5111271;28;20428;-56
2022/12/21 11:05:34;;;;;;;1.53;1.43;;;;;;;18.21;28.55;95818.47;5113934;28;20470;-56
2022/12/21 11:08:20;;;;;;;0.80;0.73;;;;;;;18.47;27.78;95830.19;5114884;28;20869;-56
2022/12/21 11:10:50;;;;;;;1.50;0.93;;;;;;;18.21;28.97;95827.34;5114232;28;20463;-56
2022/12/21 11:13:24;;;;;;;0.70;0.50;;;;;;;18.31;29.23;95820.94;5114430;28;20442;-58
2022/12/21 11:16:00;;;;;;;2.30;1.37;;;;;;;18.47;29.11;95776.50;5114402;28;20432;-58
2022/12/21 11:18:41;;;;;;;1.17;1.17;;;;;;;19.77;27.14;95819.69;5114755;28;20443;-58
2022/12/21 11:21:30;;;;;;;18.93;1.43;;;;;;;18.10;27.89;95648.13;5114332;28;20522;-59
2022/12/21 11:24:03;;;;;;;1.70;1.60;;;;;;;18.49;28.60;95746.69;5114362;28;20932;-58
2022/12/21 11:26:38;;;;;;;2.23;2.13;;;;;;;19.05;27.59;95810.47;5113811;28;20559;-58
2022/12/21 11:29:13;;;;;;;1.73;1.63;;;;;;;19.31;27.32;95779.06;5114068;28;20510;-58
2022/12/21 11:31:42;;;;;;;4.03;2.43;;;;;;;18.98;26.85;95800.94;5114062;28;20999;-58
2022/12/21 11:34:33;;;;;;;2.97;1.50;;;;;;;18.62;27.79;95800.28;5114367;28;20436;-58
2022/12/21 11:37:21;;;;;;;2.40;1.70;;;;;;;19.22;28.54;95808.63;5114180;28;20465;-58
2022/12/21 11:39:49;;;;;;;2.70;0.80;;;;;;;19.78;28.21;95780.94;5113993;28;20435;-58
2022/12/21 11:42:20;;;;;;;5.20;1.90;;;;;;;19.28;26.94;95748.22;5114032;28;20428;-58
2022/12/21 11:44:50;;;;;;;2.33;2.23;;;;;;;19.98;27.61;95783.00;5114035;28;20516;-58
2022/12/21 11:47:43;;;;;;;1.70;1.60;;;;;;;18.79;25.52;95584.75;5114095;28;20428;-58
2022/12/21 11:50:30;;;;;;;2.90;2.70;;;;;;;18.35;27.17;95642.88;5113353;28;20865;-58
2022/12/21 11:53:28;;;;;;;1.07;1.00;;;;;;;20.14;26.83;95777.88;5113939;28;20501;-59
2022/12/21 11:56:17;;;;;;;1.50;1.43;;;;;;;20.69;25.54;95743.78;5113646;28;20444;-58
2022/12/21 11:59:04;;;;;;;2.20;2.10;;;;;;;19.42;25.82;95640.59;5113871;28;20463;-59
2022/12/21 12:01:45;;;;;;;1.43;1.20;;;;;;;19.67;26.16;95762.72;5113911;28;20541;-58
2022/12/21 12:04:30;;;;;;;2.30;2.20;;;;;;;19.17;27.14;95749.66;5114044;28;20481;-58
2022/12/21 12:07:27;;;;;;;3.90;0.80;;;;;;;19.65;26.42;95757.66;5113728;28;20479;-58
2022/12/21 12:10:29;;;;;;;2.63;1.53;;;;;;;19.42;27.11;95761.59;5113295;28;20420;-58
2022/12/21 12:13:07;;;;;;;21.77;1.10;;;;;;;19.29;27.20;95755.19;5113520;28;20881;-58
2022/12/21 12:15:44;;;;;;;9.37;1.47;;;;;;;18.77;26.77;95759.59;5113551;28;20428;-58